sensor_id;sensor_type;location;lat;lon;timestamp;temperature;humidity
51873;DHT22;52863;52.504;13.480;2022-08-21T00:00:27;19.90;99.90
51873;DHT22;52863;52.504;13.480;2022-08-21T00:02:56;19.80;99.90
51873;DHT22;52863;52.504;13.480;2022-08-21T00:05:25;19.80;99.90
51873;DHT22;52863;52.504;13.480;2022-08-21T00:07:54;19.80;99.90
51873;DHT22;52863;52.504;13.480;2022-08-21T00:10:25;19.80;99.90
51873;DHT22;52863;52.504;13.480;2022-08-21T00:12:53;19.80;99.90
51873;DHT22;52863;52.504;13.480;2022-08-21T00:15:23;19.70;99.90
51873;DHT22;52863;52.504;13.480;2022-08-21T00:20:20;19.70;99.90
51873;DHT22;52863;52.504;13.480;2022-08-21T00:25:15;19.70;99.90
51873;DHT22;52863;52.504;13.480;2022-08-21T00:30:16;19.70;99.90
51873;DHT22;52863;52.504;13.480;2022-08-21T00:35:20;19.60;99.90
51873;DHT22;52863;52.504;13.480;2022-08-21T00:40:17;19.50;99.90
51873;DHT22;52863;52.504;13.480;2022-08-21T00:45:20;19.50;99.90
51873;DHT22;52863;52.504;13.480;2022-08-21T00:50:16;19.50;99.90
51873;DHT22;52863;52.504;13.480;2022-08-21T00:52:49;19.50;99.90
51873;DHT22;52863;52.504;13.480;2022-08-21T00:57:47;19.40;99.90
51873;DHT22;52863;52.504;13.480;2022-08-21T01:00:20;19.40;99.90
51873;DHT22;52863;52.504;13.480;2022-08-21T01:02:48;19.50;99.90
51873;DHT22;52863;52.504;13.480;2022-08-21T01:05:15;19.40;99.90
51873;DHT22;52863;52.504;13.480;2022-08-21T01:10:12;19.40;99.90
51873;DHT22;52863;52.504;13.480;2022-08-21T01:12:50;19.40;99.90
51873;DHT22;52863;52.504;13.480;2022-08-21T01:15:19;19.40;99.90
51873;DHT22;52863;52.504;13.480;2022-08-21T01:20:14;19.40;99.90
51873;DHT22;52863;52.504;13.480;2022-08-21T01:22:44;19.40;99.90
51873;DHT22;52863;52.504;13.480;2022-08-21T01:25:15;19.40;99.90
51873;DHT22;52863;52.504;13.480;2022-08-21T01:27:43;19.30;99.90
51873;DHT22;52863;52.504;13.480;2022-08-21T01:30:13;19.30;99.90
51873;DHT22;52863;52.504;13.480;2022-08-21T01:32:44;19.40;99.90
51873;DHT22;52863;52.504;13.480;2022-08-21T01:40:10;19.50;99.90
51873;DHT22;52863;52.504;13.480;2022-08-21T01:45:06;19.20;99.90
51873;DHT22;52863;52.504;13.480;2022-08-21T01:54:57;19.20;99.90
51873;DHT22;52863;52.504;13.480;2022-08-21T01:57:24;19.10;99.90
51873;DHT22;52863;52.504;13.480;2022-08-21T01:59:52;19.00;99.90
51873;DHT22;52863;52.504;13.480;2022-08-21T02:07:14;19.00;99.90
51873;DHT22;52863;52.504;13.480;2022-08-21T02:14:39;18.90;99.90
51873;DHT22;52863;52.504;13.480;2022-08-21T02:19:36;18.90;99.90
51873;DHT22;52863;52.504;13.480;2022-08-21T02:31:56;18.70;99.90
51873;DHT22;52863;52.504;13.480;2022-08-21T02:47:02;18.60;99.90
51873;DHT22;52863;52.504;13.480;2022-08-21T03:04:14;18.40;99.90
51873;DHT22;52863;52.504;13.480;2022-08-21T03:06:42;18.40;99.90
51873;DHT22;52863;52.504;13.480;2022-08-21T03:21:32;18.20;99.90
51873;DHT22;52863;52.504;13.480;2022-08-21T03:24:00;18.20;99.90
51873;DHT22;52863;52.504;13.480;2022-08-21T03:26:31;18.20;99.90
51873;DHT22;52863;52.504;13.480;2022-08-21T03:38:50;18.00;99.90
51873;DHT22;52863;52.504;13.480;2022-08-21T03:56:04;17.50;99.90
51873;DHT22;52863;52.504;13.480;2022-08-21T04:01:00;17.80;99.90
51873;DHT22;52863;52.504;13.480;2022-08-21T04:03:27;17.80;99.90
51873;DHT22;52863;52.504;13.480;2022-08-21T04:10:51;17.70;99.90
51873;DHT22;52863;52.504;13.480;2022-08-21T04:13:20;17.70;99.90
51873;DHT22;52863;52.504;13.480;2022-08-21T04:15:47;17.70;99.90
51873;DHT22;52863;52.504;13.480;2022-08-21T04:20:42;17.80;99.90
51873;DHT22;52863;52.504;13.480;2022-08-21T04:30:45;17.70;99.90
51873;DHT22;52863;52.504;13.480;2022-08-21T04:33:12;17.70;99.90
51873;DHT22;52863;52.504;13.480;2022-08-21T04:43:04;17.60;99.90
51873;DHT22;52863;52.504;13.480;2022-08-21T04:45:34;17.80;99.90
51873;DHT22;52863;52.504;13.480;2022-08-21T04:48:04;17.80;99.90
51873;DHT22;52863;52.504;13.480;2022-08-21T04:50:40;17.80;99.90
51873;DHT22;52863;52.504;13.480;2022-08-21T04:53:12;17.80;99.90
51873;DHT22;52863;52.504;13.480;2022-08-21T04:55:41;17.80;99.90
51873;DHT22;52863;52.504;13.480;2022-08-21T04:58:09;17.80;99.90
51873;DHT22;52863;52.504;13.480;2022-08-21T05:00:38;17.80;99.90
51873;DHT22;52863;52.504;13.480;2022-08-21T05:03:06;17.80;99.90
51873;DHT22;52863;52.504;13.480;2022-08-21T05:08:03;17.40;99.90
51873;DHT22;52863;52.504;13.480;2022-08-21T05:10:30;17.90;99.90
51873;DHT22;52863;52.504;13.480;2022-08-21T05:12:58;17.90;99.90
51873;DHT22;52863;52.504;13.480;2022-08-21T05:20:28;18.00;99.90
51873;DHT22;52863;52.504;13.480;2022-08-21T05:25:23;17.70;99.90
51873;DHT22;52863;52.504;13.480;2022-08-21T05:30:19;18.00;99.90
51873;DHT22;52863;52.504;13.480;2022-08-21T05:35:13;18.10;99.90
51873;DHT22;52863;52.504;13.480;2022-08-21T05:37:41;18.10;99.90
51873;DHT22;52863;52.504;13.480;2022-08-21T05:40:09;18.10;99.90
51873;DHT22;52863;52.504;13.480;2022-08-21T05:42:49;18.10;99.90
51873;DHT22;52863;52.504;13.480;2022-08-21T05:50:36;18.30;99.90
51873;DHT22;52863;52.504;13.480;2022-08-21T05:53:04;18.30;99.90
51873;DHT22;52863;52.504;13.480;2022-08-21T05:55:35;18.40;99.90
51873;DHT22;52863;52.504;13.480;2022-08-21T06:08:04;18.60;99.90
51873;DHT22;52863;52.504;13.480;2022-08-21T06:25:14;19.00;99.90
51873;DHT22;52863;52.504;13.480;2022-08-21T06:30:09;19.20;99.90
51873;DHT22;52863;52.504;13.480;2022-08-21T06:35:05;19.20;99.90
51873;DHT22;52863;52.504;13.480;2022-08-21T06:42:29;19.50;99.90
51873;DHT22;52863;52.504;13.480;2022-08-21T06:44:56;19.50;99.90
51873;DHT22;52863;52.504;13.480;2022-08-21T06:52:20;19.70;99.90
51873;DHT22;52863;52.504;13.480;2022-08-21T06:59:42;20.00;99.90
51873;DHT22;52863;52.504;13.480;2022-08-21T07:04:59;20.20;99.90
51873;DHT22;52863;52.504;13.480;2022-08-21T07:14:48;20.70;99.90
51873;DHT22;52863;52.504;13.480;2022-08-21T07:27:03;21.20;99.90
51873;DHT22;52863;52.504;13.480;2022-08-21T07:32:04;21.60;99.90
51873;DHT22;52863;52.504;13.480;2022-08-21T07:34:32;21.40;99.90
51873;DHT22;52863;52.504;13.480;2022-08-21T07:47:01;21.80;99.90
51873;DHT22;52863;52.504;13.480;2022-08-21T07:49:29;22.00;99.90
51873;DHT22;52863;52.504;13.480;2022-08-21T07:51:57;22.30;99.90
51873;DHT22;52863;52.504;13.480;2022-08-21T07:57:01;22.70;99.90
51873;DHT22;52863;52.504;13.480;2022-08-21T08:06:53;22.90;99.90
51873;DHT22;52863;52.504;13.480;2022-08-21T08:24:05;24.40;99.90
51873;DHT22;52863;52.504;13.480;2022-08-21T08:36:51;26.40;99.90
51873;DHT22;52863;52.504;13.480;2022-08-21T08:39:19;26.60;99.90
51873;DHT22;52863;52.504;13.480;2022-08-21T08:41:59;26.70;99.90
51873;DHT22;52863;52.504;13.480;2022-08-21T08:49:31;25.60;99.90
51873;DHT22;52863;52.504;13.480;2022-08-21T08:52:03;25.30;99.90
51873;DHT22;52863;52.504;13.480;2022-08-21T08:54:37;24.50;99.90
51873;DHT22;52863;52.504;13.480;2022-08-21T08:57:10;24.10;99.90
51873;DHT22;52863;52.504;13.480;2022-08-21T08:59:45;23.70;99.90
51873;DHT22;52863;52.504;13.480;2022-08-21T09:02:15;23.40;99.90
51873;DHT22;52863;52.504;13.480;2022-08-21T09:04:44;23.60;99.90
51873;DHT22;52863;52.504;13.480;2022-08-21T09:07:18;23.90;99.90
51873;DHT22;52863;52.504;13.480;2022-08-21T09:10:02;23.60;99.90
51873;DHT22;52863;52.504;13.480;2022-08-21T09:12:37;23.60;99.90
51873;DHT22;52863;52.504;13.480;2022-08-21T09:15:13;24.00;99.90
51873;DHT22;52863;52.504;13.480;2022-08-21T09:17:55;23.70;99.90
51873;DHT22;52863;52.504;13.480;2022-08-21T09:20:33;23.50;99.90
51873;DHT22;52863;52.504;13.480;2022-08-21T09:23:15;23.50;99.90
51873;DHT22;52863;52.504;13.480;2022-08-21T09:25:56;23.20;99.90
51873;DHT22;52863;52.504;13.480;2022-08-21T09:30:55;23.20;99.90
51873;DHT22;52863;52.504;13.480;2022-08-21T09:35:52;23.20;99.90
51873;DHT22;52863;52.504;13.480;2022-08-21T09:38:26;23.30;99.90
51873;DHT22;52863;52.504;13.480;2022-08-21T09:41:00;23.40;99.90
51873;DHT22;52863;52.504;13.480;2022-08-21T09:46:04;23.50;99.90
51873;DHT22;52863;52.504;13.480;2022-08-21T09:48:43;23.50;99.90
51873;DHT22;52863;52.504;13.480;2022-08-21T09:51:13;23.40;99.90
51873;DHT22;52863;52.504;13.480;2022-08-21T09:53:48;23.30;99.90
51873;DHT22;52863;52.504;13.480;2022-08-21T09:56:20;23.40;99.90
51873;DHT22;52863;52.504;13.480;2022-08-21T09:59:15;23.70;99.90
51873;DHT22;52863;52.504;13.480;2022-08-21T10:01:44;23.90;99.90
51873;DHT22;52863;52.504;13.480;2022-08-21T10:09:10;24.60;99.90
51873;DHT22;52863;52.504;13.480;2022-08-21T10:11:56;24.70;99.90
51873;DHT22;52863;52.504;13.480;2022-08-21T10:14:36;24.90;99.90
51873;DHT22;52863;52.504;13.480;2022-08-21T10:17:10;25.30;99.90
51873;DHT22;52863;52.504;13.480;2022-08-21T10:19:48;25.60;99.90
51873;DHT22;52863;52.504;13.480;2022-08-21T10:22:30;25.50;99.90
51873;DHT22;52863;52.504;13.480;2022-08-21T10:25:07;25.30;99.40
51873;DHT22;52863;52.504;13.480;2022-08-21T10:27:44;25.00;99.90
51873;DHT22;52863;52.504;13.480;2022-08-21T10:30:17;24.80;99.90
51873;DHT22;52863;52.504;13.480;2022-08-21T10:33:12;24.80;99.90
51873;DHT22;52863;52.504;13.480;2022-08-21T10:35:47;25.20;99.90
51873;DHT22;52863;52.504;13.480;2022-08-21T10:41:52;25.60;98.80
51873;DHT22;52863;52.504;13.480;2022-08-21T10:44:30;26.10;98.10
51873;DHT22;52863;52.504;13.480;2022-08-21T10:47:01;26.40;97.10
51873;DHT22;52863;52.504;13.480;2022-08-21T10:49:38;26.80;95.50
51873;DHT22;52863;52.504;13.480;2022-08-21T10:52:36;27.40;99.90
51873;DHT22;52863;52.504;13.480;2022-08-21T10:55:12;27.20;95.60
51873;DHT22;52863;52.504;13.480;2022-08-21T10:57:44;27.40;94.00
51873;DHT22;52863;52.504;13.480;2022-08-21T11:00:18;27.00;93.40
51873;DHT22;52863;52.504;13.480;2022-08-21T11:02:50;27.00;94.20
51873;DHT22;52863;52.504;13.480;2022-08-21T11:05:25;26.80;92.60
51873;DHT22;52863;52.504;13.480;2022-08-21T11:07:56;26.50;93.10
51873;DHT22;52863;52.504;13.480;2022-08-21T11:10:33;26.70;93.50
51873;DHT22;52863;52.504;13.480;2022-08-21T11:13:03;26.60;92.90
51873;DHT22;52863;52.504;13.480;2022-08-21T11:15:38;27.30;90.80
51873;DHT22;52863;52.504;13.480;2022-08-21T11:18:20;27.80;88.10
51873;DHT22;52863;52.504;13.480;2022-08-21T11:20:59;28.00;89.10
51873;DHT22;52863;52.504;13.480;2022-08-21T11:23:33;27.40;87.10
51873;DHT22;52863;52.504;13.480;2022-08-21T11:26:08;26.70;88.40
51873;DHT22;52863;52.504;13.480;2022-08-21T11:28:46;26.90;87.90
51873;DHT22;52863;52.504;13.480;2022-08-21T11:31:30;27.10;86.20
51873;DHT22;52863;52.504;13.480;2022-08-21T11:34:08;27.30;85.40
51873;DHT22;52863;52.504;13.480;2022-08-21T11:36:44;27.60;83.40
51873;DHT22;52863;52.504;13.480;2022-08-21T11:39:19;27.60;79.10
51873;DHT22;52863;52.504;13.480;2022-08-21T11:41:54;27.50;75.20
51873;DHT22;52863;52.504;13.480;2022-08-21T11:44:37;27.90;76.20
51873;DHT22;52863;52.504;13.480;2022-08-21T11:47:13;28.90;78.30
51873;DHT22;52863;52.504;13.480;2022-08-21T11:49:48;30.00;69.00
51873;DHT22;52863;52.504;13.480;2022-08-21T11:52:19;30.10;66.50
51873;DHT22;52863;52.504;13.480;2022-08-21T11:54:52;30.20;74.70
51873;DHT22;52863;52.504;13.480;2022-08-21T11:57:24;31.20;74.00
51873;DHT22;52863;52.504;13.480;2022-08-21T11:59:59;30.90;69.60
51873;DHT22;52863;52.504;13.480;2022-08-21T12:02:33;31.20;56.90
51873;DHT22;52863;52.504;13.480;2022-08-21T12:05:04;31.90;66.30
51873;DHT22;52863;52.504;13.480;2022-08-21T12:07:37;31.40;65.90
51873;DHT22;52863;52.504;13.480;2022-08-21T12:10:07;31.40;64.50
51873;DHT22;52863;52.504;13.480;2022-08-21T12:12:36;31.70;54.50
51873;DHT22;52863;52.504;13.480;2022-08-21T12:15:26;31.80;57.20
51873;DHT22;52863;52.504;13.480;2022-08-21T12:17:59;32.30;52.50
51873;DHT22;52863;52.504;13.480;2022-08-21T12:20:38;32.60;55.00
51873;DHT22;52863;52.504;13.480;2022-08-21T12:23:24;33.30;59.10
51873;DHT22;52863;52.504;13.480;2022-08-21T12:26:01;33.70;60.30
51873;DHT22;52863;52.504;13.480;2022-08-21T12:28:32;33.70;51.90
51873;DHT22;52863;52.504;13.480;2022-08-21T12:30:58;32.20;59.60
51873;DHT22;52863;52.504;13.480;2022-08-21T12:33:32;30.90;59.50
51873;DHT22;52863;52.504;13.480;2022-08-21T12:36:06;29.10;52.70
51873;DHT22;52863;52.504;13.480;2022-08-21T12:38:44;28.50;67.50
51873;DHT22;52863;52.504;13.480;2022-08-21T12:41:16;27.50;56.20
51873;DHT22;52863;52.504;13.480;2022-08-21T12:43:48;27.10;56.50
51873;DHT22;52863;52.504;13.480;2022-08-21T12:46:20;26.70;58.80
51873;DHT22;52863;52.504;13.480;2022-08-21T12:48:52;26.50;59.10
51873;DHT22;52863;52.504;13.480;2022-08-21T12:51:26;26.20;62.40
51873;DHT22;52863;52.504;13.480;2022-08-21T12:53:56;26.20;61.90
51873;DHT22;52863;52.504;13.480;2022-08-21T12:56:26;26.20;64.00
51873;DHT22;52863;52.504;13.480;2022-08-21T12:58:55;26.30;65.70
51873;DHT22;52863;52.504;13.480;2022-08-21T13:01:25;26.30;62.70
51873;DHT22;52863;52.504;13.480;2022-08-21T13:03:58;26.20;63.90
51873;DHT22;52863;52.504;13.480;2022-08-21T13:06:36;26.00;65.50
51873;DHT22;52863;52.504;13.480;2022-08-21T13:09:10;25.60;77.70
51873;DHT22;52863;52.504;13.480;2022-08-21T13:11:39;25.90;60.80
51873;DHT22;52863;52.504;13.480;2022-08-21T13:14:19;25.60;60.40
51873;DHT22;52863;52.504;13.480;2022-08-21T13:16:53;25.20;62.30
51873;DHT22;52863;52.504;13.480;2022-08-21T13:19:23;25.20;65.60
51873;DHT22;52863;52.504;13.480;2022-08-21T13:21:52;25.20;64.40
51873;DHT22;52863;52.504;13.480;2022-08-21T13:24:21;25.10;66.30
51873;DHT22;52863;52.504;13.480;2022-08-21T13:27:25;24.70;68.70
51873;DHT22;52863;52.504;13.480;2022-08-21T13:30:04;25.30;67.00
51873;DHT22;52863;52.504;13.480;2022-08-21T13:32:33;25.50;69.00
51873;DHT22;52863;52.504;13.480;2022-08-21T13:35:14;25.60;68.90
51873;DHT22;52863;52.504;13.480;2022-08-21T13:37:45;25.60;67.60
51873;DHT22;52863;52.504;13.480;2022-08-21T13:40:17;25.60;65.50
51873;DHT22;52863;52.504;13.480;2022-08-21T13:42:47;25.60;64.00
51873;DHT22;52863;52.504;13.480;2022-08-21T13:45:18;25.60;64.00
51873;DHT22;52863;52.504;13.480;2022-08-21T13:47:46;25.60;67.00
51873;DHT22;52863;52.504;13.480;2022-08-21T13:50:16;25.50;68.70
51873;DHT22;52863;52.504;13.480;2022-08-21T13:52:48;25.40;68.10
51873;DHT22;52863;52.504;13.480;2022-08-21T13:55:16;25.30;67.30
51873;DHT22;52863;52.504;13.480;2022-08-21T14:00:18;25.10;77.50
51873;DHT22;52863;52.504;13.480;2022-08-21T14:02:48;25.40;71.30
51873;DHT22;52863;52.504;13.480;2022-08-21T14:05:28;25.30;69.00
51873;DHT22;52863;52.504;13.480;2022-08-21T14:08:00;25.20;67.40
51873;DHT22;52863;52.504;13.480;2022-08-21T14:12:58;24.80;72.40
51873;DHT22;52863;52.504;13.480;2022-08-21T14:15:29;24.70;71.80
51873;DHT22;52863;52.504;13.480;2022-08-21T14:18:07;24.60;73.90
51873;DHT22;52863;52.504;13.480;2022-08-21T14:20:36;24.60;74.80
51873;DHT22;52863;52.504;13.480;2022-08-21T14:25:39;24.50;75.20
51873;DHT22;52863;52.504;13.480;2022-08-21T14:28:19;23.40;77.90
51873;DHT22;52863;52.504;13.480;2022-08-21T14:30:54;24.30;79.60
51873;DHT22;52863;52.504;13.480;2022-08-21T14:33:25;24.30;78.90
51873;DHT22;52863;52.504;13.480;2022-08-21T14:35:53;24.30;78.50
51873;DHT22;52863;52.504;13.480;2022-08-21T14:38:21;24.30;78.70
51873;DHT22;52863;52.504;13.480;2022-08-21T14:40:51;24.30;77.70
51873;DHT22;52863;52.504;13.480;2022-08-21T14:45:46;24.10;80.20
51873;DHT22;52863;52.504;13.480;2022-08-21T14:53:07;24.00;78.90
51873;DHT22;52863;52.504;13.480;2022-08-21T14:55:38;23.90;79.90
51873;DHT22;52863;52.504;13.480;2022-08-21T15:00:49;23.90;80.70
51873;DHT22;52863;52.504;13.480;2022-08-21T15:08:11;24.00;80.50
51873;DHT22;52863;52.504;13.480;2022-08-21T15:18:21;24.00;83.20
51873;DHT22;52863;52.504;13.480;2022-08-21T15:20:49;23.90;83.30
51873;DHT22;52863;52.504;13.480;2022-08-21T15:23:17;24.00;84.60
51873;DHT22;52863;52.504;13.480;2022-08-21T15:25:46;24.00;84.20
51873;DHT22;52863;52.504;13.480;2022-08-21T15:28:15;23.90;84.00
51873;DHT22;52863;52.504;13.480;2022-08-21T15:30:44;23.90;83.70
51873;DHT22;52863;52.504;13.480;2022-08-21T15:35:39;23.90;85.10
51873;DHT22;52863;52.504;13.480;2022-08-21T15:40:38;23.80;84.80
51873;DHT22;52863;52.504;13.480;2022-08-21T15:43:23;23.70;85.80
51873;DHT22;52863;52.504;13.480;2022-08-21T15:55:47;23.40;89.10
51873;DHT22;52863;52.504;13.480;2022-08-21T15:58:15;23.20;89.10
51873;DHT22;52863;52.504;13.480;2022-08-21T16:03:15;23.10;89.60
51873;DHT22;52863;52.504;13.480;2022-08-21T16:05:44;23.10;90.90
51873;DHT22;52863;52.504;13.480;2022-08-21T16:13:19;22.90;91.10
51873;DHT22;52863;52.504;13.480;2022-08-21T16:18:16;22.80;93.10
51873;DHT22;52863;52.504;13.480;2022-08-21T16:28:08;22.60;92.00
51873;DHT22;52863;52.504;13.480;2022-08-21T16:30:40;22.60;92.50
51873;DHT22;52863;52.504;13.480;2022-08-21T16:33:17;22.30;99.80
51873;DHT22;52863;52.504;13.480;2022-08-21T16:38:54;22.40;93.20
51873;DHT22;52863;52.504;13.480;2022-08-21T16:41:23;22.50;93.30
51873;DHT22;52863;52.504;13.480;2022-08-21T16:46:23;22.40;94.80
51873;DHT22;52863;52.504;13.480;2022-08-21T16:58:48;22.10;97.70
51873;DHT22;52863;52.504;13.480;2022-08-21T17:01:20;22.00;97.70
51873;DHT22;52863;52.504;13.480;2022-08-21T17:06:17;21.90;96.40
51873;DHT22;52863;52.504;13.480;2022-08-21T17:11:16;21.90;95.50
51873;DHT22;52863;52.504;13.480;2022-08-21T17:14:06;21.70;99.90
51873;DHT22;52863;52.504;13.480;2022-08-21T17:16:34;21.80;99.50
51873;DHT22;52863;52.504;13.480;2022-08-21T17:19:17;21.90;96.80
51873;DHT22;52863;52.504;13.480;2022-08-21T17:26:47;21.80;97.30
51873;DHT22;52863;52.504;13.480;2022-08-21T17:29:14;21.80;99.90
51873;DHT22;52863;52.504;13.480;2022-08-21T17:31:43;21.40;99.90
51873;DHT22;52863;52.504;13.480;2022-08-21T17:34:10;21.70;99.30
51873;DHT22;52863;52.504;13.480;2022-08-21T17:39:05;21.50;99.90
51873;DHT22;52863;52.504;13.480;2022-08-21T17:41:32;21.50;99.90
51873;DHT22;52863;52.504;13.480;2022-08-21T17:44:03;21.50;99.90
51873;DHT22;52863;52.504;13.480;2022-08-21T17:46:32;20.80;99.90
51873;DHT22;52863;52.504;13.480;2022-08-21T17:49:00;22.00;99.90
51873;DHT22;52863;52.504;13.480;2022-08-21T17:51:27;21.50;99.90
51873;DHT22;52863;52.504;13.480;2022-08-21T17:56:23;21.10;99.90
51873;DHT22;52863;52.504;13.480;2022-08-21T17:58:53;21.10;99.90
51873;DHT22;52863;52.504;13.480;2022-08-21T18:01:20;21.10;99.90
51873;DHT22;52863;52.504;13.480;2022-08-21T18:08:43;20.70;99.90
51873;DHT22;52863;52.504;13.480;2022-08-21T18:13:51;20.30;99.90
51873;DHT22;52863;52.504;13.480;2022-08-21T18:18:47;20.40;99.90
51873;DHT22;52863;52.504;13.480;2022-08-21T18:21:17;20.30;99.90
51873;DHT22;52863;52.504;13.480;2022-08-21T18:26:12;20.10;99.90
51873;DHT22;52863;52.504;13.480;2022-08-21T18:28:40;19.90;99.90
51873;DHT22;52863;52.504;13.480;2022-08-21T18:31:07;20.00;99.90
51873;DHT22;52863;52.504;13.480;2022-08-21T18:38:31;20.10;99.90
51873;DHT22;52863;52.504;13.480;2022-08-21T18:43:25;19.70;99.90
51873;DHT22;52863;52.504;13.480;2022-08-21T18:48:19;19.80;99.90
51873;DHT22;52863;52.504;13.480;2022-08-21T18:50:46;19.50;99.90
51873;DHT22;52863;52.504;13.480;2022-08-21T18:53:15;19.40;99.90
51873;DHT22;52863;52.504;13.480;2022-08-21T18:55:54;19.30;99.90
51873;DHT22;52863;52.504;13.480;2022-08-21T19:11:04;18.90;99.90
51873;DHT22;52863;52.504;13.480;2022-08-21T19:18:29;18.70;99.90
51873;DHT22;52863;52.504;13.480;2022-08-21T19:23:24;18.60;99.90
51873;DHT22;52863;52.504;13.480;2022-08-21T19:25:57;18.70;99.90
51873;DHT22;52863;52.504;13.480;2022-08-21T19:28:31;18.50;99.90
51873;DHT22;52863;52.504;13.480;2022-08-21T19:31:02;18.50;99.90
51873;DHT22;52863;52.504;13.480;2022-08-21T19:33:34;18.50;99.90
51873;DHT22;52863;52.504;13.480;2022-08-21T19:36:03;18.50;99.90
51873;DHT22;52863;52.504;13.480;2022-08-21T19:40:58;18.60;99.90
51873;DHT22;52863;52.504;13.480;2022-08-21T19:45:57;18.30;99.90
51873;DHT22;52863;52.504;13.480;2022-08-21T19:48:24;19.20;99.90
51873;DHT22;52863;52.504;13.480;2022-08-21T19:50:52;18.40;99.90
51873;DHT22;52863;52.504;13.480;2022-08-21T19:53:19;18.30;99.90
51873;DHT22;52863;52.504;13.480;2022-08-21T19:55:47;18.10;99.90
51873;DHT22;52863;52.504;13.480;2022-08-21T19:58:25;18.00;99.90
51873;DHT22;52863;52.504;13.480;2022-08-21T20:03:21;18.00;99.90
51873;DHT22;52863;52.504;13.480;2022-08-21T20:10:46;17.90;99.90
51873;DHT22;52863;52.504;13.480;2022-08-21T20:13:16;17.90;99.90
51873;DHT22;52863;52.504;13.480;2022-08-21T20:20:40;17.80;99.90
51873;DHT22;52863;52.504;13.480;2022-08-21T20:23:07;18.10;99.90
51873;DHT22;52863;52.504;13.480;2022-08-21T20:25:37;17.70;99.90
51873;DHT22;52863;52.504;13.480;2022-08-21T20:37:55;17.60;99.90
51873;DHT22;52863;52.504;13.480;2022-08-21T20:45:28;17.50;99.90
51873;DHT22;52863;52.504;13.480;2022-08-21T20:48:00;17.50;99.90
51873;DHT22;52863;52.504;13.480;2022-08-21T20:50:29;17.70;99.90
51873;DHT22;52863;52.504;13.480;2022-08-21T20:53:05;17.50;99.90
51873;DHT22;52863;52.504;13.480;2022-08-21T20:55:36;17.60;99.90
51873;DHT22;52863;52.504;13.480;2022-08-21T20:58:07;17.50;99.90
51873;DHT22;52863;52.504;13.480;2022-08-21T21:00:59;17.60;99.90
51873;DHT22;52863;52.504;13.480;2022-08-21T21:03:32;17.60;99.90
51873;DHT22;52863;52.504;13.480;2022-08-21T21:06:02;17.50;99.90
51873;DHT22;52863;52.504;13.480;2022-08-21T21:08:34;17.40;99.90
51873;DHT22;52863;52.504;13.480;2022-08-21T21:11:09;17.30;99.90
51873;DHT22;52863;52.504;13.480;2022-08-21T21:13:44;16.90;99.90
51873;DHT22;52863;52.504;13.480;2022-08-21T21:16:16;17.30;99.90
51873;DHT22;52863;52.504;13.480;2022-08-21T21:18:47;17.50;99.90
51873;DHT22;52863;52.504;13.480;2022-08-21T21:21:25;17.10;99.90
51873;DHT22;52863;52.504;13.480;2022-08-21T21:24:04;17.10;99.90
51873;DHT22;52863;52.504;13.480;2022-08-21T21:26:36;16.90;99.90
51873;DHT22;52863;52.504;13.480;2022-08-21T21:29:13;16.90;99.90
51873;DHT22;52863;52.504;13.480;2022-08-21T21:34:09;17.00;99.90
51873;DHT22;52863;52.504;13.480;2022-08-21T21:36:49;16.50;99.90
51873;DHT22;52863;52.504;13.480;2022-08-21T21:39:27;16.70;99.90
51873;DHT22;52863;52.504;13.480;2022-08-21T21:42:09;16.90;99.90
51873;DHT22;52863;52.504;13.480;2022-08-21T21:45:02;16.90;99.90
51873;DHT22;52863;52.504;13.480;2022-08-21T21:47:38;16.70;99.90
51873;DHT22;52863;52.504;13.480;2022-08-21T21:50:25;16.70;99.90
51873;DHT22;52863;52.504;13.480;2022-08-21T21:53:10;16.70;99.90
51873;DHT22;52863;52.504;13.480;2022-08-21T21:55:55;16.60;99.90
51873;DHT22;52863;52.504;13.480;2022-08-21T21:58:45;16.60;99.90
51873;DHT22;52863;52.504;13.480;2022-08-21T22:01:20;16.50;99.90
51873;DHT22;52863;52.504;13.480;2022-08-21T22:03:58;16.50;99.90
51873;DHT22;52863;52.504;13.480;2022-08-21T22:06:37;16.50;99.90
51873;DHT22;52863;52.504;13.480;2022-08-21T22:09:12;16.50;99.90
51873;DHT22;52863;52.504;13.480;2022-08-21T22:11:53;16.40;99.90
51873;DHT22;52863;52.504;13.480;2022-08-21T22:14:28;16.40;99.90
51873;DHT22;52863;52.504;13.480;2022-08-21T22:17:08;16.30;99.90
51873;DHT22;52863;52.504;13.480;2022-08-21T22:19:39;16.30;99.90
51873;DHT22;52863;52.504;13.480;2022-08-21T22:22:13;16.30;99.90
51873;DHT22;52863;52.504;13.480;2022-08-21T22:24:44;15.80;99.90
51873;DHT22;52863;52.504;13.480;2022-08-21T22:27:16;16.20;99.90
51873;DHT22;52863;52.504;13.480;2022-08-21T22:29:47;16.20;99.90
51873;DHT22;52863;52.504;13.480;2022-08-21T22:32:23;16.40;99.90
51873;DHT22;52863;52.504;13.480;2022-08-21T22:35:03;16.20;99.90
51873;DHT22;52863;52.504;13.480;2022-08-21T22:40:11;16.20;99.90
51873;DHT22;52863;52.504;13.480;2022-08-21T22:50:18;16.20;99.90
51873;DHT22;52863;52.504;13.480;2022-08-21T22:52:48;16.10;99.90
51873;DHT22;52863;52.504;13.480;2022-08-21T22:55:22;16.10;99.90
51873;DHT22;52863;52.504;13.480;2022-08-21T22:58:05;16.20;99.90
51873;DHT22;52863;52.504;13.480;2022-08-21T23:00:40;16.10;99.90
51873;DHT22;52863;52.504;13.480;2022-08-21T23:08:21;16.20;99.90
51873;DHT22;52863;52.504;13.480;2022-08-21T23:10:56;16.20;99.90
51873;DHT22;52863;52.504;13.480;2022-08-21T23:15:58;16.10;99.90
51873;DHT22;52863;52.504;13.480;2022-08-21T23:18:32;16.10;99.90
51873;DHT22;52863;52.504;13.480;2022-08-21T23:21:11;16.10;99.90
51873;DHT22;52863;52.504;13.480;2022-08-21T23:23:54;16.10;99.90
51873;DHT22;52863;52.504;13.480;2022-08-21T23:26:27;16.10;99.90
51873;DHT22;52863;52.504;13.480;2022-08-21T23:29:09;16.10;99.90
51873;DHT22;52863;52.504;13.480;2022-08-21T23:32:01;16.10;99.90
51873;DHT22;52863;52.504;13.480;2022-08-21T23:34:37;16.20;99.90
51873;DHT22;52863;52.504;13.480;2022-08-21T23:37:18;16.20;99.90
51873;DHT22;52863;52.504;13.480;2022-08-21T23:40:36;16.20;99.90
51873;DHT22;52863;52.504;13.480;2022-08-21T23:43:22;16.20;99.90
51873;DHT22;52863;52.504;13.480;2022-08-21T23:46:05;16.20;99.90
51873;DHT22;52863;52.504;13.480;2022-08-21T23:48:45;16.20;99.90
51873;DHT22;52863;52.504;13.480;2022-08-21T23:51:26;16.10;99.90
51873;DHT22;52863;52.504;13.480;2022-08-21T23:54:05;16.10;99.90
51873;DHT22;52863;52.504;13.480;2022-08-21T23:56:48;16.10;99.90
51873;DHT22;52863;52.504;13.480;2022-08-21T23:59:28;16.10;99.90
